TimeEST,TemperatureF,Dew PointF,Humidity,Sea Level PressureIn,VisibilityMPH,Wind Direction,Wind SpeedMPH,Gust SpeedMPH,PrecipitationIn,Events,Conditions,WindDirDegrees,DateUTC
12:54 AM,44.1,35.1,71,30.07,10.0,East,3.5,-,N/A,,Clear,100,2012-11-06 05:54:00
1:54 AM,44.1,34.0,68,30.06,10.0,Variable,4.6,-,N/A,,Clear,0,2012-11-06 06:54:00
2:54 AM,44.1,33.1,65,30.07,10.0,Variable,5.8,-,N/A,,Clear,0,2012-11-06 07:54:00
3:54 AM,44.1,33.1,65,30.05,10.0,Variable,5.8,-,N/A,,Partly Cloudy,0,2012-11-06 08:54:00
4:54 AM,43.0,33.1,68,30.08,10.0,East,4.6,-,N/A,,Mostly Cloudy,100,2012-11-06 09:54:00
5:54 AM,43.0,32.0,65,30.08,10.0,ENE,5.8,-,N/A,,Overcast,70,2012-11-06 10:54:00
6:54 AM,42.1,32.0,67,30.11,10.0,NE,3.5,-,N/A,,Overcast,50,2012-11-06 11:54:00
7:54 AM,42.1,32.0,67,30.12,9.0,ENE,5.8,-,N/A,,Overcast,60,2012-11-06 12:54:00
8:54 AM,42.1,32.0,67,30.12,9.0,NNE,6.9,-,N/A,,Overcast,30,2012-11-06 13:54:00
9:54 AM,43.0,32.0,65,30.12,9.0,NE,6.9,-,N/A,,Unknown,40,2012-11-06 14:54:00
10:54 AM,44.1,30.9,60,30.12,9.0,Variable,6.9,-,N/A,,Overcast,0,2012-11-06 15:54:00
11:54 AM,45.0,30.9,58,30.08,9.0,NNE,9.2,-,N/A,,Overcast,30,2012-11-06 16:54:00
12:54 PM,46.0,32.0,58,30.04,9.0,Variable,6.9,-,N/A,,Overcast,0,2012-11-06 17:54:00
1:54 PM,45.0,30.0,56,30.00,9.0,Variable,6.9,-,N/A,,Overcast,0,2012-11-06 18:54:00
2:54 PM,48.0,30.0,50,29.99,10.0,NNE,8.1,-,N/A,,Unknown,30,2012-11-06 19:54:00
3:54 PM,48.0,30.0,50,29.99,9.0,ENE,9.2,-,N/A,,Partly Cloudy,70,2012-11-06 20:54:00
4:54 PM,46.0,30.9,56,29.99,10.0,Variable,6.9,-,N/A,,Mostly Cloudy,0,2012-11-06 21:54:00
5:54 PM,44.1,32.0,63,30.00,10.0,NNE,6.9,-,N/A,,Overcast,30,2012-11-06 22:54:00
6:54 PM,42.1,33.1,70,30.01,9.0,NNE,5.8,-,N/A,,Unknown,20,2012-11-06 23:54:00
7:54 PM,39.9,34.0,79,30.01,8.0,NNW,5.8,-,N/A,,Mostly Cloudy,340,2012-11-07 00:54:00
8:54 PM,36.0,30.9,82,30.01,8.0,NNE,4.6,-,N/A,,Clear,20,2012-11-07 01:54:00
9:54 PM,39.0,33.1,79,29.99,8.0,NNE,6.9,-,N/A,,Clear,30,2012-11-07 02:54:00
10:54 PM,37.9,32.0,79,29.99,8.0,NNE,9.2,-,N/A,,Clear,20,2012-11-07 03:54:00
11:54 PM,37.0,32.0,82,29.97,8.0,NNE,6.9,-,N/A,,Clear,20,2012-11-07 04:54:00